Treviso-Sant'Angelo Airport

LIPH · 威尼托, 意大利

罗盘
风向 的 风向 040° Treviso-Sant'Angelo Airport 7/25
风: 9 kt, 3 beaufort

8 kt

4 kt
改变
0 ft 2.000 4.000 6.000 8.000 10.000
Cloud Cloud Cloud Cloud Cloud Cloud Cloud Cloud
OVC 5.400
METAR LIPH 270120Z AUTO 04009KT 9999 -RA OVC054/// 10/07 Q1007

METAR Treviso-Sant'Angelo Airport - LIPH/TSF

Treviso-Sant'Angelo Airport是,意大利中的中型机场。 该机场位于纬度45,64864和经度12,19459。 该机场有一条跑道: 7/25. 本场的ICAO机场代码为LIPH。 该机场的IATA代码为TSF。 机场在Milano FIR中。

该航空气象观测是针对Treviso-Sant'Angelo Airport在2024年2月27日 02:20, 当地时间进行的。

机场观察

风向为040°,速度为9 kt。

可见度为10 km 或者更多。

有乌云密布在5.400 ft的高度。 破损或更高的上限为5.400 ft。

当前天气为光 雨。 温度为10 °C,阵风为7 °C。 露点为7 °C,相对湿度为82%。 海平面上的气压为1007 hPa (QNH)。

白天

今天,太阳从06:53升起,在17:54降落。 这适用于Treviso-Sant'Angelo Airport,世界夏令时可能有所不同。 当地时间与世界标准时间之间的时差为+1 小时。 当前,没有夏令时有效。

公司介绍

我们没有关于这个机场的公司信息。

体会

到Vliegles.nl去找飞行课程,跳伞和其他飞行体验。 浏览页面,了解Treviso-Sant'Angelo Airport附近所有可用的活动。 你也可以使用搜索功能来寻找你所在地附近的特定飞行课程、跳伞或其他飞行体验。

跑道

Id 标题 侧风 逆风 侧风 %
7/25 069°-249° 4 kt 8 kt 48 %

逆风成分最大的方向会被突出显示,并用于横风计算。 这并不一定意味着这个方向在使用。

乌云

5.400 ft OVC 乌云密布

温度 & 天气

天气 光 雨
温度 10 °C
露点 7 °C
相对湿度 82%
风寒 7 °C
Kp-index 3 (0-9)

白天

日出
06:53 (4:19)
中午
12:23
日落
17:54

小工具

你想在你的网站上有一个关于Treviso-Sant'Angelo Airport的当前航空天气(METAR)的小部件吗?

显示HTML代码
?>